createdAt,value
2018-04-04T00:00:03.971Z,994.33
2018-04-04T00:00:31.465Z,994.41
2018-04-04T00:00:58.868Z,994.3
2018-04-04T00:01:26.413Z,994.24
2018-04-04T00:01:54.216Z,994.37
2018-04-04T00:02:21.860Z,994.34
2018-04-04T00:02:49.209Z,994.36
2018-04-04T00:03:16.264Z,994.32
2018-04-04T00:03:43.044Z,994.38
2018-04-04T00:04:10.566Z,994.35
2018-04-04T00:04:37.726Z,994.31
2018-04-04T00:05:04.881Z,994.31
2018-04-04T00:05:31.986Z,994.37
2018-04-04T00:05:59.313Z,994.23
2018-04-04T00:06:26.836Z,994.42
2018-04-04T00:06:54.570Z,994.45
2018-04-04T00:07:22.390Z,994.35
2018-04-04T00:07:50.156Z,994.39
2018-04-04T00:08:18.065Z,994.42
2018-04-04T00:08:46.070Z,994.4
2018-04-04T00:09:13.877Z,994.38
2018-04-04T00:09:41.478Z,994.37
2018-04-04T00:10:09.132Z,994.43
2018-04-04T00:10:36.828Z,994.43
2018-04-04T00:11:04.788Z,994.41
2018-04-04T00:11:32.492Z,994.46
2018-04-04T00:12:00.805Z,994.58
2018-04-04T00:12:28.717Z,994.4
2018-04-04T00:12:56.596Z,994.42
2018-04-04T00:13:24.656Z,994.5
2018-04-04T00:13:52.389Z,994.6
2018-04-04T00:14:20.096Z,994.51
2018-04-04T00:14:48.212Z,994.46
2018-04-04T00:15:14.439Z,994.52
2018-04-04T00:15:40.710Z,994.48
2018-04-04T00:16:06.990Z,994.49
2018-04-04T00:16:33.379Z,994.51
2018-04-04T00:16:59.604Z,994.56
2018-04-04T00:17:25.847Z,994.62
2018-04-04T00:17:52.155Z,994.52
2018-04-04T00:18:18.327Z,994.55
2018-04-04T00:18:44.521Z,994.62
2018-04-04T00:19:10.737Z,994.55
2018-04-04T00:19:36.947Z,994.55
2018-04-04T00:20:03.138Z,994.53
2018-04-04T00:20:29.317Z,994.55
2018-04-04T00:20:55.491Z,994.64
2018-04-04T00:21:21.639Z,994.58
2018-04-04T00:21:47.783Z,994.57
2018-04-04T00:22:13.964Z,994.52
2018-04-04T00:22:40.117Z,994.62
2018-04-04T00:23:06.427Z,994.61
2018-04-04T00:23:32.560Z,994.69
2018-04-04T00:23:58.757Z,994.63
2018-04-04T00:24:24.941Z,994.76
2018-04-04T00:24:51.135Z,994.6
2018-04-04T00:25:17.390Z,994.76
2018-04-04T00:25:43.503Z,994.75
2018-04-04T00:26:09.695Z,994.84
2018-04-04T00:26:35.889Z,994.76
2018-04-04T00:27:02.076Z,994.86
2018-04-04T00:27:28.241Z,994.77
2018-04-04T00:27:54.398Z,994.77
2018-04-04T00:28:20.588Z,994.8
2018-04-04T00:28:46.778Z,994.82
2018-04-04T00:29:12.938Z,994.78
2018-04-04T00:29:39.144Z,994.82
2018-04-04T00:30:05.329Z,994.77
2018-04-04T00:30:31.551Z,994.88
2018-04-04T00:30:57.722Z,994.84
2018-04-04T00:31:23.902Z,994.79
2018-04-04T00:31:50.168Z,994.86
2018-04-04T00:32:16.255Z,994.95
2018-04-04T00:32:42.438Z,994.92
2018-04-04T00:33:08.614Z,994.93
2018-04-04T00:33:34.806Z,995.07
2018-04-04T00:34:01.013Z,994.95
2018-04-04T00:34:27.186Z,994.96
2018-04-04T00:34:53.325Z,994.98
2018-04-04T00:35:19.520Z,994.97
2018-04-04T00:35:45.722Z,995
2018-04-04T00:36:11.887Z,995.08
2018-04-04T00:36:38.036Z,994.91
2018-04-04T00:37:04.199Z,995.04
2018-04-04T00:37:30.410Z,995.03
2018-04-04T00:37:56.594Z,994.95
2018-04-04T00:38:22.848Z,995.05
2018-04-04T00:38:48.962Z,995.06
2018-04-04T00:39:15.130Z,995.02
2018-04-04T00:39:41.325Z,995.1
2018-04-04T00:40:07.465Z,995.23
2018-04-04T00:40:33.644Z,995.06
2018-04-04T00:40:59.836Z,995
2018-04-04T00:41:26.070Z,995.16
2018-04-04T00:41:52.269Z,995.17
2018-04-04T00:42:18.425Z,995.4
2018-04-04T00:42:44.639Z,995.21
2018-04-04T00:43:10.799Z,995.35
2018-04-04T00:43:37.043Z,995.2
2018-04-04T00:44:03.196Z,995.29
2018-04-04T00:44:29.365Z,995.31
2018-04-04T00:44:55.532Z,995.25
2018-04-04T00:45:21.957Z,995.36
2018-04-04T00:45:48.131Z,995.34
2018-04-04T00:46:14.284Z,995.33
2018-04-04T00:46:40.485Z,995.3
2018-04-04T00:47:06.697Z,995.35
2018-04-04T00:47:32.876Z,995.28
2018-04-04T00:47:59.175Z,995.34
2018-04-04T00:48:25.304Z,995.33
2018-04-04T00:48:51.479Z,995.39
2018-04-04T00:49:17.820Z,995.38
2018-04-04T00:49:43.990Z,995.31
2018-04-04T00:50:10.137Z,995.43
2018-04-04T00:50:36.379Z,995.43
2018-04-04T00:51:02.547Z,995.42
2018-04-04T00:51:28.725Z,995.42
2018-04-04T00:51:54.907Z,995.4
2018-04-04T00:52:21.091Z,995.48
2018-04-04T00:52:47.275Z,995.45
2018-04-04T00:53:13.444Z,995.36
2018-04-04T00:53:39.649Z,995.42
2018-04-04T00:54:05.796Z,995.41
2018-04-04T00:54:32.015Z,995.48
2018-04-04T00:54:58.279Z,995.47
2018-04-04T00:55:24.411Z,995.48
2018-04-04T00:55:50.637Z,995.46
2018-04-04T00:56:16.851Z,995.36
2018-04-04T00:56:43.039Z,995.43
2018-04-04T00:57:09.212Z,995.46
2018-04-04T00:57:35.465Z,995.5
2018-04-04T00:58:01.602Z,995.54
2018-04-04T00:58:27.784Z,995.47
2018-04-04T00:58:53.974Z,995.45
2018-04-04T00:59:20.219Z,995.32
2018-04-04T00:59:46.388Z,995.51
2018-04-04T01:00:12.586Z,995.5
2018-04-04T01:00:38.943Z,995.51
2018-04-04T01:01:05.090Z,995.54
2018-04-04T01:01:31.230Z,995.54
2018-04-04T01:01:57.385Z,995.67
2018-04-04T01:02:23.551Z,995.53
2018-04-04T01:02:49.688Z,995.56
2018-04-04T01:03:15.823Z,995.61
2018-04-04T01:03:41.965Z,995.62
2018-04-04T01:04:08.144Z,995.61
2018-04-04T01:04:34.296Z,995.65
2018-04-04T01:05:00.557Z,995.69
2018-04-04T01:05:26.738Z,995.69
2018-04-04T01:05:53.085Z,995.62
2018-04-04T01:06:19.307Z,995.63
2018-04-04T01:06:45.625Z,995.63
2018-04-04T01:07:12.039Z,995.71
2018-04-04T01:07:38.446Z,995.72
2018-04-04T01:08:04.794Z,995.7
2018-04-04T01:08:31.229Z,995.73
2018-04-04T01:08:57.593Z,995.66
2018-04-04T01:09:23.732Z,995.68
2018-04-04T01:09:49.874Z,995.67
2018-04-04T01:10:16.044Z,995.78
2018-04-04T01:10:42.207Z,995.77
2018-04-04T01:11:08.389Z,995.71
2018-04-04T01:11:34.570Z,995.75
2018-04-04T01:12:00.727Z,995.7
2018-04-04T01:12:26.874Z,995.74
2018-04-04T01:12:53.074Z,995.7
2018-04-04T01:13:19.222Z,995.66
2018-04-04T01:13:45.495Z,995.76
2018-04-04T01:14:11.597Z,995.76
2018-04-04T01:14:37.751Z,995.73
2018-04-04T01:15:03.979Z,995.7
2018-04-04T01:15:30.107Z,995.77
2018-04-04T01:15:56.295Z,995.77
2018-04-04T01:16:22.477Z,995.73
2018-04-04T01:16:48.968Z,995.78
2018-04-04T01:17:15.112Z,995.68
2018-04-04T01:17:41.299Z,995.75
2018-04-04T01:18:07.457Z,995.77
2018-04-04T01:18:33.675Z,995.74
2018-04-04T01:18:59.829Z,995.74
2018-04-04T01:19:25.988Z,995.77
2018-04-04T01:19:52.269Z,995.76
2018-04-04T01:20:18.398Z,995.71
2018-04-04T01:20:44.571Z,995.74
2018-04-04T01:21:10.738Z,995.78
2018-04-04T01:21:36.921Z,995.68
2018-04-04T01:22:03.081Z,995.74
2018-04-04T01:22:29.274Z,995.75
2018-04-04T01:22:55.415Z,995.77
2018-04-04T01:23:21.588Z,995.81
2018-04-04T01:23:47.767Z,995.73
2018-04-04T01:24:13.949Z,995.8
2018-04-04T01:24:40.130Z,995.86
2018-04-04T01:25:06.294Z,995.84
2018-04-04T01:25:32.429Z,995.86
2018-04-04T01:25:58.602Z,995.85
2018-04-04T01:26:24.763Z,995.86
2018-04-04T01:26:50.937Z,995.85
2018-04-04T01:27:17.106Z,995.85
2018-04-04T01:27:43.260Z,995.88
2018-04-04T01:28:09.442Z,995.86
2018-04-04T01:28:35.649Z,995.84
2018-04-04T01:29:01.814Z,995.84
2018-04-04T01:29:27.980Z,995.89
2018-04-04T01:29:54.144Z,995.87
2018-04-04T01:30:20.364Z,995.88
2018-04-04T01:30:46.498Z,995.9
2018-04-04T01:31:12.676Z,995.9
2018-04-04T01:31:38.858Z,995.91
2018-04-04T01:32:05.019Z,995.89
2018-04-04T01:32:31.229Z,995.88
2018-04-04T01:32:57.379Z,995.92
2018-04-04T01:33:23.622Z,995.87
2018-04-04T01:33:49.794Z,995.9
2018-04-04T01:34:16.024Z,995.91
2018-04-04T01:34:42.202Z,995.91
2018-04-04T01:35:08.383Z,996.06
2018-04-04T01:35:34.593Z,995.98
2018-04-04T01:36:00.825Z,995.94
2018-04-04T01:36:27.081Z,995.95
2018-04-04T01:36:53.342Z,995.91
2018-04-04T01:37:19.521Z,995.97
2018-04-04T01:37:45.686Z,995.99
2018-04-04T01:38:11.885Z,996.03
2018-04-04T01:38:38.130Z,995.97
2018-04-04T01:39:04.234Z,996
2018-04-04T01:39:30.404Z,995.98
2018-04-04T01:39:56.545Z,995.97
2018-04-04T01:40:22.712Z,996.03
2018-04-04T01:40:48.898Z,996.05
2018-04-04T01:41:15.066Z,996.06
2018-04-04T01:41:41.249Z,996.07
2018-04-04T01:42:07.414Z,996.05
2018-04-04T01:42:33.603Z,996.06
2018-04-04T01:42:59.757Z,996.09
2018-04-04T01:43:25.939Z,996.06
2018-04-04T01:43:52.099Z,996.08
2018-04-04T01:44:18.312Z,996.07
2018-04-04T01:44:44.456Z,996.07
2018-04-04T01:45:10.655Z,996.07
2018-04-04T01:45:36.894Z,996.06
2018-04-04T01:46:03.028Z,996.03
2018-04-04T01:46:29.228Z,996.02
2018-04-04T01:46:55.501Z,996.02
2018-04-04T01:47:21.688Z,996.03
2018-04-04T01:47:47.857Z,996.02
2018-04-04T01:48:14.341Z,996.02
2018-04-04T01:48:40.525Z,996.04
2018-04-04T01:49:06.727Z,996.04
2018-04-04T01:49:32.917Z,996.03
2018-04-04T01:49:59.093Z,996.03
2018-04-04T01:50:25.307Z,995.99
2018-04-04T01:50:51.433Z,996.02
2018-04-04T01:51:17.595Z,996.02
2018-04-04T01:51:43.724Z,996.03
2018-04-04T01:52:09.869Z,996.07
2018-04-04T01:52:36.004Z,996.02
2018-04-04T01:53:02.144Z,996.01
2018-04-04T01:53:28.304Z,996.02
2018-04-04T01:53:54.447Z,996.01
2018-04-04T01:54:20.584Z,996.07
2018-04-04T01:54:46.791Z,996.05
2018-04-04T01:55:13.008Z,996.03
2018-04-04T01:55:39.277Z,996.02
2018-04-04T01:56:05.568Z,996.04
2018-04-04T01:56:31.983Z,996.07
2018-04-04T01:56:58.652Z,996.08
2018-04-04T01:57:24.784Z,996.07
2018-04-04T01:57:50.919Z,996.08
2018-04-04T01:58:17.088Z,996.09
2018-04-04T01:58:43.223Z,996.06
2018-04-04T01:59:09.364Z,996.08
2018-04-04T01:59:35.503Z,996.07
2018-04-04T02:00:01.637Z,996.07
2018-04-04T02:00:27.775Z,996.06
2018-04-04T02:00:53.914Z,996.1
2018-04-04T02:01:20.052Z,996.1
2018-04-04T02:01:46.190Z,996.1
2018-04-04T02:02:12.324Z,996.05
2018-04-04T02:02:38.469Z,996.04
2018-04-04T02:03:04.626Z,996.09
2018-04-04T02:03:30.763Z,996.04
2018-04-04T02:03:56.926Z,996.1
2018-04-04T02:04:23.068Z,996.11
2018-04-04T02:04:49.199Z,996.08
2018-04-04T02:05:15.337Z,996.15
2018-04-04T02:05:41.475Z,996.11
2018-04-04T02:06:07.618Z,996.1
2018-04-04T02:06:33.779Z,996.12
2018-04-04T02:06:59.968Z,996.14
2018-04-04T02:07:26.101Z,996.14
2018-04-04T02:07:52.243Z,996.11
2018-04-04T02:08:18.377Z,996.13
2018-04-04T02:08:44.515Z,996.17
2018-04-04T02:09:10.656Z,996.19
2018-04-04T02:09:36.817Z,996.16
2018-04-04T02:10:02.951Z,996.12
2018-04-04T02:10:29.089Z,996.19
2018-04-04T02:10:55.230Z,996.13
2018-04-04T02:11:21.365Z,996.16
2018-04-04T02:11:47.506Z,996.14
2018-04-04T02:12:13.661Z,996.11
2018-04-04T02:12:39.799Z,996.09
2018-04-04T02:13:05.940Z,996.09
2018-04-04T02:13:32.076Z,996.08
2018-04-04T02:13:58.211Z,996.13
2018-04-04T02:14:24.353Z,996.1
2018-04-04T02:14:50.498Z,996.1
2018-04-04T02:15:16.633Z,996.08
2018-04-04T02:15:42.765Z,996.08
2018-04-04T02:16:08.911Z,996.07
2018-04-04T02:16:35.051Z,996.1
2018-04-04T02:17:01.185Z,996.08
2018-04-04T02:17:27.323Z,996.02
2018-04-04T02:17:53.459Z,996.02
2018-04-04T02:18:19.595Z,996.02
2018-04-04T02:18:45.732Z,996.03
2018-04-04T02:19:11.869Z,996.01
2018-04-04T02:19:38.035Z,996.03
2018-04-04T02:20:04.191Z,996.02
2018-04-04T02:20:30.355Z,996.01
2018-04-04T02:20:56.501Z,996.04
2018-04-04T02:21:22.632Z,996.04
2018-04-04T02:21:48.788Z,996.06
2018-04-04T02:22:14.929Z,996.06
2018-04-04T02:22:41.066Z,996.07
2018-04-04T02:23:07.211Z,996.06
2018-04-04T02:23:33.350Z,996.07
2018-04-04T02:23:59.492Z,996.1
2018-04-04T02:24:25.629Z,996.1
2018-04-04T02:24:51.774Z,996.08
2018-04-04T02:25:17.907Z,996.12
2018-04-04T02:25:44.071Z,996.16
2018-04-04T02:26:10.209Z,996.13
2018-04-04T02:26:36.349Z,996.11
2018-04-04T02:27:02.491Z,996.09
2018-04-04T02:27:28.627Z,996.11
2018-04-04T02:27:54.763Z,996.14
2018-04-04T02:28:20.907Z,996.15
2018-04-04T02:28:47.036Z,996.1
2018-04-04T02:29:13.171Z,996.11
2018-04-04T02:29:39.305Z,996.1
2018-04-04T02:30:05.454Z,996.1
2018-04-04T02:30:31.612Z,996.12
2018-04-04T02:30:57.743Z,996.13
2018-04-04T02:31:23.881Z,996.14
2018-04-04T02:31:50.049Z,996.15
2018-04-04T02:32:16.185Z,996.2
2018-04-04T02:32:42.326Z,996.22
2018-04-04T02:33:08.461Z,996.21
2018-04-04T02:33:34.603Z,996.21
2018-04-04T02:34:00.739Z,996.22
2018-04-04T02:34:26.886Z,996.26
2018-04-04T02:34:53.050Z,996.27
2018-04-04T02:35:19.186Z,996.31
2018-04-04T02:35:45.321Z,996.29
2018-04-04T02:36:11.461Z,996.33
2018-04-04T02:36:37.592Z,996.34
2018-04-04T02:37:03.736Z,996.36
2018-04-04T02:37:29.877Z,996.34
2018-04-04T02:37:56.015Z,996.32
2018-04-04T02:38:22.155Z,996.35
2018-04-04T02:38:48.294Z,996.37
2018-04-04T02:39:14.431Z,996.31
2018-04-04T02:39:40.567Z,996.36
2018-04-04T02:40:06.708Z,996.31
2018-04-04T02:40:32.840Z,996.33
2018-04-04T02:40:58.979Z,996.34
2018-04-04T02:41:25.122Z,996.3
2018-04-04T02:41:51.262Z,996.33
2018-04-04T02:42:17.403Z,996.33
2018-04-04T02:42:43.530Z,996.31
2018-04-04T02:43:09.699Z,996.3
2018-04-04T02:43:35.833Z,996.29
2018-04-04T02:44:01.996Z,996.32
2018-04-04T02:44:28.128Z,996.36
2018-04-04T02:44:54.266Z,996.34
2018-04-04T02:45:20.406Z,996.36
2018-04-04T02:45:46.548Z,996.35
2018-04-04T02:46:12.683Z,996.39
2018-04-04T02:46:38.825Z,996.37
2018-04-04T02:47:05.003Z,996.38
2018-04-04T02:47:31.142Z,996.41
2018-04-04T02:47:57.279Z,996.41
2018-04-04T02:48:23.441Z,996.44
2018-04-04T02:48:49.573Z,996.43
2018-04-04T02:49:15.738Z,996.48
2018-04-04T02:49:41.879Z,996.47
2018-04-04T02:50:08.005Z,996.46
2018-04-04T02:50:34.139Z,996.45
2018-04-04T02:51:00.276Z,996.49
2018-04-04T02:51:26.423Z,996.46
2018-04-04T02:51:52.555Z,996.5
2018-04-04T02:52:18.699Z,996.5
2018-04-04T02:52:44.827Z,996.49
2018-04-04T02:53:10.962Z,996.49
2018-04-04T02:53:37.102Z,996.5
2018-04-04T02:54:03.272Z,996.52
2018-04-04T02:54:29.453Z,996.44
2018-04-04T02:54:55.538Z,996.46
2018-04-04T02:55:21.678Z,996.48
2018-04-04T02:55:47.812Z,996.46
2018-04-04T02:56:13.954Z,996.47
2018-04-04T02:56:40.094Z,996.42
2018-04-04T02:57:06.229Z,996.47
2018-04-04T02:57:32.361Z,996.51
2018-04-04T02:57:58.505Z,996.47
2018-04-04T02:58:24.650Z,996.47
2018-04-04T02:58:50.778Z,996.47
2018-04-04T02:59:16.920Z,996.41
2018-04-04T02:59:43.109Z,996.51
2018-04-04T03:00:09.196Z,996.54
2018-04-04T03:00:35.334Z,996.53
2018-04-04T03:01:01.495Z,996.53
2018-04-04T03:01:27.639Z,996.5
2018-04-04T03:01:53.779Z,996.56
2018-04-04T03:02:19.910Z,996.55
2018-04-04T03:02:46.057Z,996.54
2018-04-04T03:03:12.191Z,996.54
2018-04-04T03:03:38.321Z,996.52
2018-04-04T03:04:04.477Z,996.54
2018-04-04T03:04:30.605Z,996.54
2018-04-04T03:04:56.740Z,996.57
2018-04-04T03:05:22.875Z,996.57
2018-04-04T03:05:49.038Z,996.59
2018-04-04T03:06:15.177Z,996.55
2018-04-04T03:06:41.311Z,996.59
2018-04-04T03:07:07.456Z,996.59
2018-04-04T03:07:33.596Z,996.61
2018-04-04T03:07:59.752Z,996.68
2018-04-04T03:08:25.891Z,996.6
2018-04-04T03:08:52.035Z,996.66
2018-04-04T03:09:18.174Z,996.69
2018-04-04T03:09:44.313Z,996.67
2018-04-04T03:10:10.453Z,996.65
2018-04-04T03:10:36.589Z,996.67
2018-04-04T03:11:02.725Z,996.67
2018-04-04T03:11:28.860Z,996.67
2018-04-04T03:11:54.998Z,996.66
2018-04-04T03:12:21.149Z,996.71
2018-04-04T03:12:47.290Z,996.69
2018-04-04T03:13:13.417Z,996.68
2018-04-04T03:13:39.558Z,996.67
2018-04-04T03:14:05.702Z,996.64
2018-04-04T03:14:31.858Z,996.7
2018-04-04T03:14:57.995Z,996.68
2018-04-04T03:15:24.135Z,996.71
2018-04-04T03:15:50.275Z,996.7
2018-04-04T03:16:16.408Z,996.7
2018-04-04T03:16:42.568Z,996.66
2018-04-04T03:17:08.685Z,996.72
2018-04-04T03:17:34.841Z,996.67
2018-04-04T03:18:00.978Z,996.69
2018-04-04T03:18:27.116Z,996.71
2018-04-04T03:18:53.261Z,996.72
2018-04-04T03:19:19.420Z,996.68
2018-04-04T03:19:45.562Z,996.71
2018-04-04T03:20:11.705Z,996.67
2018-04-04T03:20:37.835Z,996.69
2018-04-04T03:21:03.976Z,996.68
2018-04-04T03:21:30.116Z,996.69
2018-04-04T03:21:56.249Z,996.68
2018-04-04T03:22:22.389Z,996.67
2018-04-04T03:22:48.533Z,996.68
2018-04-04T03:23:14.667Z,996.66
2018-04-04T03:23:40.805Z,996.67
2018-04-04T03:24:06.947Z,996.69
2018-04-04T03:24:33.081Z,996.68
2018-04-04T03:24:59.218Z,996.75
2018-04-04T03:25:25.353Z,996.71
2018-04-04T03:25:51.495Z,996.71
2018-04-04T03:26:17.628Z,996.72
2018-04-04T03:26:43.783Z,996.75
2018-04-04T03:27:09.924Z,996.74
2018-04-04T03:27:36.086Z,996.72
2018-04-04T03:28:02.221Z,996.73
2018-04-04T03:28:28.356Z,996.8
2018-04-04T03:28:54.492Z,996.76
2018-04-04T03:29:20.636Z,996.76
2018-04-04T03:29:46.801Z,996.78
2018-04-04T03:30:12.935Z,996.78
2018-04-04T03:30:39.078Z,996.73
2018-04-04T03:31:05.213Z,996.75
2018-04-04T03:31:31.357Z,996.77
2018-04-04T03:31:57.484Z,996.79
2018-04-04T03:32:23.617Z,996.77
2018-04-04T03:32:49.759Z,996.73
2018-04-04T03:33:15.893Z,996.7
2018-04-04T03:33:42.059Z,996.76
2018-04-04T03:34:08.199Z,996.68
2018-04-04T03:34:34.345Z,996.74
2018-04-04T03:35:00.514Z,996.73
2018-04-04T03:35:26.654Z,996.74
2018-04-04T03:35:52.785Z,996.75
2018-04-04T03:36:18.925Z,996.72
2018-04-04T03:36:45.060Z,996.73
2018-04-04T03:37:11.194Z,996.7
2018-04-04T03:37:37.336Z,996.68
2018-04-04T03:38:03.479Z,996.69
2018-04-04T03:38:29.611Z,996.66
2018-04-04T03:38:55.763Z,996.67
2018-04-04T03:39:21.896Z,996.68
2018-04-04T03:39:48.039Z,996.65
2018-04-04T03:40:14.177Z,996.65
2018-04-04T03:40:40.325Z,996.67
2018-04-04T03:41:06.511Z,996.63
2018-04-04T03:41:32.632Z,996.67
2018-04-04T03:41:58.765Z,996.69
2018-04-04T03:42:24.906Z,996.62
2018-04-04T03:42:51.070Z,996.62
2018-04-04T03:43:17.204Z,996.6
2018-04-04T03:43:43.350Z,996.6
2018-04-04T03:44:09.504Z,996.59
2018-04-04T03:44:35.623Z,996.59
2018-04-04T03:45:01.761Z,996.58
2018-04-04T03:45:27.891Z,996.57
2018-04-04T03:45:54.037Z,996.59
2018-04-04T03:46:20.168Z,996.58
2018-04-04T03:46:46.310Z,996.6
2018-04-04T03:47:12.442Z,996.59
2018-04-04T03:47:38.586Z,996.62
2018-04-04T03:48:04.723Z,996.6
2018-04-04T03:48:30.871Z,996.62
2018-04-04T03:48:57.020Z,996.6
2018-04-04T03:49:23.160Z,996.63
2018-04-04T03:49:49.294Z,996.64
2018-04-04T03:50:15.462Z,996.62
2018-04-04T03:50:41.600Z,996.65
2018-04-04T03:51:07.734Z,996.66
2018-04-04T03:51:33.875Z,996.63
2018-04-04T03:52:00.011Z,996.65
2018-04-04T03:52:26.149Z,996.62
2018-04-04T03:52:52.295Z,996.66
2018-04-04T03:53:18.423Z,996.67
2018-04-04T03:53:44.565Z,996.64
2018-04-04T03:54:10.708Z,996.65
2018-04-04T03:54:36.894Z,996.65
2018-04-04T03:55:03.037Z,996.66
2018-04-04T03:55:29.194Z,996.64
2018-04-04T03:55:55.333Z,996.64
2018-04-04T03:56:21.469Z,996.62
2018-04-04T03:56:47.634Z,996.61
2018-04-04T03:57:13.777Z,996.57
2018-04-04T03:57:39.915Z,996.57
2018-04-04T03:58:06.046Z,996.59
2018-04-04T03:58:32.188Z,996.62
2018-04-04T03:58:58.324Z,996.6
2018-04-04T03:59:24.465Z,996.61
2018-04-04T03:59:50.599Z,996.59
2018-04-04T04:00:16.767Z,996.61
2018-04-04T04:00:42.929Z,996.58
2018-04-04T04:01:09.062Z,996.59
2018-04-04T04:01:35.205Z,996.58
2018-04-04T04:02:01.344Z,996.6
2018-04-04T04:02:27.477Z,996.59
2018-04-04T04:02:53.614Z,996.59
2018-04-04T04:03:19.749Z,996.61
2018-04-04T04:03:45.888Z,996.6
2018-04-04T04:04:12.048Z,996.57
2018-04-04T04:04:38.196Z,996.6
2018-04-04T04:05:04.334Z,996.58
2018-04-04T04:05:30.470Z,996.58
2018-04-04T04:05:56.603Z,996.59
2018-04-04T04:06:22.755Z,996.61
2018-04-04T04:06:48.903Z,996.56
2018-04-04T04:07:15.066Z,996.56
2018-04-04T04:07:41.203Z,996.55
2018-04-04T04:08:07.343Z,996.53
2018-04-04T04:08:33.479Z,996.53
2018-04-04T04:08:59.622Z,996.52
2018-04-04T04:09:25.753Z,996.51
2018-04-04T04:09:51.893Z,996.48
2018-04-04T04:10:18.057Z,996.52
2018-04-04T04:10:44.189Z,996.5
2018-04-04T04:11:10.331Z,996.52
2018-04-04T04:11:36.469Z,996.54
2018-04-04T04:12:02.612Z,996.55
2018-04-04T04:12:28.742Z,996.54
2018-04-04T04:12:54.879Z,996.57
2018-04-04T04:13:21.019Z,996.5
2018-04-04T04:13:47.155Z,996.55
2018-04-04T04:14:13.294Z,996.52
2018-04-04T04:14:39.432Z,996.49
2018-04-04T04:15:05.570Z,996.52
2018-04-04T04:15:31.727Z,996.5
2018-04-04T04:15:57.895Z,996.47
2018-04-04T04:16:24.035Z,996.49
2018-04-04T04:16:50.171Z,996.48
2018-04-04T04:17:16.307Z,996.48
2018-04-04T04:17:42.452Z,996.5
2018-04-04T04:18:08.580Z,996.48
2018-04-04T04:18:34.740Z,996.48
2018-04-04T04:19:00.903Z,996.47
2018-04-04T04:19:27.066Z,996.49
2018-04-04T04:19:53.200Z,996.5
2018-04-04T04:20:19.340Z,996.47
2018-04-04T04:20:45.478Z,996.5
2018-04-04T04:21:11.616Z,996.46
2018-04-04T04:21:37.753Z,996.45
2018-04-04T04:22:03.891Z,996.45
2018-04-04T04:22:30.025Z,996.42
2018-04-04T04:22:56.169Z,996.4
2018-04-04T04:23:22.307Z,996.42
2018-04-04T04:23:48.449Z,996.42
2018-04-04T04:24:14.579Z,996.4
2018-04-04T04:24:40.715Z,996.4
2018-04-04T04:25:06.857Z,996.42
2018-04-04T04:25:32.992Z,996.44
2018-04-04T04:25:59.132Z,996.4
2018-04-04T04:26:25.264Z,996.41
2018-04-04T04:26:51.404Z,996.42
2018-04-04T04:27:17.538Z,996.42
2018-04-04T04:27:43.680Z,996.38
2018-04-04T04:28:09.817Z,996.38
2018-04-04T04:28:35.954Z,996.4
2018-04-04T04:29:02.095Z,996.4
2018-04-04T04:29:28.232Z,996.39
2018-04-04T04:29:54.363Z,996.39
2018-04-04T04:30:20.505Z,996.43
2018-04-04T04:30:46.660Z,996.36
2018-04-04T04:31:12.802Z,996.42
2018-04-04T04:31:38.931Z,996.42
2018-04-04T04:32:05.073Z,996.41
2018-04-04T04:32:31.208Z,996.42
2018-04-04T04:32:57.352Z,996.39
2018-04-04T04:33:23.520Z,996.39
2018-04-04T04:33:49.656Z,996.36
2018-04-04T04:34:15.791Z,996.36
2018-04-04T04:34:41.930Z,996.38
2018-04-04T04:35:08.096Z,996.39
2018-04-04T04:35:34.237Z,996.39
2018-04-04T04:36:00.368Z,996.36
2018-04-04T04:36:26.505Z,996.41
2018-04-04T04:36:52.646Z,996.4
2018-04-04T04:37:18.783Z,996.43
2018-04-04T04:37:44.916Z,996.38
2018-04-04T04:38:11.057Z,996.39
2018-04-04T04:38:37.198Z,996.4
2018-04-04T04:39:03.339Z,996.39
2018-04-04T04:39:29.498Z,996.42
2018-04-04T04:39:55.663Z,996.41
2018-04-04T04:40:21.798Z,996.42
2018-04-04T04:40:47.938Z,996.41
2018-04-04T04:41:14.098Z,996.43
2018-04-04T04:41:40.263Z,996.42
2018-04-04T04:42:06.407Z,996.45
2018-04-04T04:42:32.573Z,996.44
2018-04-04T04:42:58.705Z,996.42
2018-04-04T04:43:24.845Z,996.41
2018-04-04T04:43:50.984Z,996.44
2018-04-04T04:44:17.123Z,996.46
2018-04-04T04:44:43.261Z,996.41
2018-04-04T04:45:09.398Z,996.47
2018-04-04T04:45:35.539Z,996.44
2018-04-04T04:46:01.679Z,996.49
2018-04-04T04:46:27.841Z,996.47
2018-04-04T04:46:53.993Z,996.47
2018-04-04T04:47:20.745Z,996.45
2018-04-04T04:47:46.305Z,996.45
2018-04-04T04:48:12.417Z,996.42
2018-04-04T04:48:38.557Z,996.44
2018-04-04T04:49:04.727Z,996.46
2018-04-04T04:49:30.859Z,996.47
2018-04-04T04:49:57.009Z,996.45
2018-04-04T04:50:23.164Z,996.44
2018-04-04T04:50:49.300Z,996.43
2018-04-04T04:51:15.433Z,996.43
2018-04-04T04:51:41.593Z,996.45
2018-04-04T04:52:07.735Z,996.44
2018-04-04T04:52:33.879Z,996.44
2018-04-04T04:53:00.014Z,996.42
2018-04-04T04:53:26.158Z,996.42
2018-04-04T04:53:52.296Z,996.43
2018-04-04T04:54:18.426Z,996.38
2018-04-04T04:54:44.596Z,996.39
2018-04-04T04:55:10.739Z,996.38
2018-04-04T04:55:36.871Z,996.36
2018-04-04T04:56:03.034Z,996.35
2018-04-04T04:56:29.174Z,996.32
2018-04-04T04:56:55.314Z,996.38
2018-04-04T04:57:21.450Z,996.44
2018-04-04T04:57:47.587Z,996.32
2018-04-04T04:58:13.725Z,996.36
2018-04-04T04:58:39.893Z,996.38
2018-04-04T04:59:06.031Z,996.34
2018-04-04T04:59:32.168Z,996.34
2018-04-04T04:59:58.300Z,996.36
2018-04-04T05:00:24.440Z,996.32
2018-04-04T05:00:50.570Z,996.29
2018-04-04T05:01:16.740Z,996.28
2018-04-04T05:01:42.944Z,996.28
2018-04-04T05:02:09.030Z,996.3
2018-04-04T05:02:35.198Z,996.26
2018-04-04T05:03:01.342Z,996.27
2018-04-04T05:03:27.470Z,996.25
2018-04-04T05:03:53.610Z,996.21
2018-04-04T05:04:19.802Z,996.2
2018-04-04T05:04:45.940Z,996.22
2018-04-04T05:05:12.100Z,996.26
2018-04-04T05:05:38.235Z,996.24
2018-04-04T05:06:04.381Z,996.2
2018-04-04T05:06:30.564Z,996.22
2018-04-04T05:06:56.700Z,996.24
2018-04-04T05:07:22.840Z,996.23
2018-04-04T05:07:48.980Z,996.21
2018-04-04T05:08:15.137Z,996.25
2018-04-04T05:08:41.275Z,996.23
2018-04-04T05:09:07.437Z,996.18
2018-04-04T05:09:33.571Z,996.25
2018-04-04T05:09:59.705Z,996.27
2018-04-04T05:10:25.872Z,996.27
2018-04-04T05:10:52.011Z,996.27
2018-04-04T05:11:18.153Z,996.3
2018-04-04T05:11:44.325Z,996.27
2018-04-04T05:12:10.455Z,996.28
2018-04-04T05:12:36.620Z,996.26
2018-04-04T05:13:02.758Z,996.29
2018-04-04T05:13:28.910Z,996.31
2018-04-04T05:13:55.040Z,996.27
2018-04-04T05:14:21.179Z,996.28
2018-04-04T05:14:47.315Z,996.28
2018-04-04T05:15:13.462Z,996.28
2018-04-04T05:15:39.598Z,996.32
2018-04-04T05:16:05.737Z,996.31
2018-04-04T05:16:31.878Z,996.3
2018-04-04T05:16:58.014Z,996.32
2018-04-04T05:17:24.149Z,996.32
2018-04-04T05:17:50.328Z,996.33
2018-04-04T05:18:16.471Z,996.37
2018-04-04T05:18:42.601Z,996.37
2018-04-04T05:19:08.745Z,996.35
2018-04-04T05:19:34.877Z,996.32
2018-04-04T05:20:01.014Z,996.31
2018-04-04T05:20:27.184Z,996.33
2018-04-04T05:20:53.358Z,996.33
2018-04-04T05:21:19.496Z,996.32
2018-04-04T05:21:45.632Z,996.34
2018-04-04T05:22:11.769Z,996.31
2018-04-04T05:22:37.913Z,996.33
2018-04-04T05:23:04.050Z,996.32
2018-04-04T05:23:30.192Z,996.34
2018-04-04T05:23:56.335Z,996.36
2018-04-04T05:24:22.471Z,996.38
2018-04-04T05:24:48.636Z,996.35
2018-04-04T05:25:14.775Z,996.36
2018-04-04T05:25:40.916Z,996.41
2018-04-04T05:26:07.055Z,996.4
2018-04-04T05:26:33.195Z,996.39
2018-04-04T05:26:59.330Z,996.43
2018-04-04T05:27:25.462Z,996.47
2018-04-04T05:27:51.626Z,996.46
2018-04-04T05:28:17.769Z,996.47